sensor_id;sensor_type;location;lat;lon;timestamp;temperature;humidity
12887;DHT22;6511;49.746;6.094;2022-12-18T00:02:13;-9.80;99.90
12887;DHT22;6511;49.746;6.094;2022-12-18T00:04:38;-9.80;99.90
12887;DHT22;6511;49.746;6.094;2022-12-18T00:07:04;-9.80;99.90
12887;DHT22;6511;49.746;6.094;2022-12-18T00:09:29;-9.80;99.90
12887;DHT22;6511;49.746;6.094;2022-12-18T00:11:55;-9.80;99.90
12887;DHT22;6511;49.746;6.094;2022-12-18T00:14:20;-9.80;99.90
12887;DHT22;6511;49.746;6.094;2022-12-18T00:16:46;-9.90;99.90
12887;DHT22;6511;49.746;6.094;2022-12-18T00:19:13;-9.90;99.90
12887;DHT22;6511;49.746;6.094;2022-12-18T00:21:39;-9.90;99.90
12887;DHT22;6511;49.746;6.094;2022-12-18T00:24:05;-10.00;99.90
12887;DHT22;6511;49.746;6.094;2022-12-18T00:26:32;-10.10;99.90
12887;DHT22;6511;49.746;6.094;2022-12-18T00:29:00;-10.00;99.90
12887;DHT22;6511;49.746;6.094;2022-12-18T00:31:26;-10.10;99.90
12887;DHT22;6511;49.746;6.094;2022-12-18T00:33:54;-10.00;99.90
12887;DHT22;6511;49.746;6.094;2022-12-18T00:36:22;-9.90;99.90
12887;DHT22;6511;49.746;6.094;2022-12-18T00:38:48;-9.90;99.90
12887;DHT22;6511;49.746;6.094;2022-12-18T00:41:15;-10.00;99.90
12887;DHT22;6511;49.746;6.094;2022-12-18T00:44:00;-10.00;99.90
12887;DHT22;6511;49.746;6.094;2022-12-18T00:46:26;-9.90;99.90
12887;DHT22;6511;49.746;6.094;2022-12-18T00:48:52;-9.90;99.90
12887;DHT22;6511;49.746;6.094;2022-12-18T00:51:17;-9.90;99.90
12887;DHT22;6511;49.746;6.094;2022-12-18T00:53:43;-9.90;99.90
12887;DHT22;6511;49.746;6.094;2022-12-18T00:56:08;-9.90;99.90
12887;DHT22;6511;49.746;6.094;2022-12-18T00:58:34;-10.00;99.90
12887;DHT22;6511;49.746;6.094;2022-12-18T01:00:59;-10.10;99.90
12887;DHT22;6511;49.746;6.094;2022-12-18T01:03:25;-10.10;99.90
12887;DHT22;6511;49.746;6.094;2022-12-18T01:05:50;-10.00;99.90
12887;DHT22;6511;49.746;6.094;2022-12-18T01:08:16;-10.10;99.90
12887;DHT22;6511;49.746;6.094;2022-12-18T01:10:41;-10.10;99.90
12887;DHT22;6511;49.746;6.094;2022-12-18T01:13:07;-10.10;99.90
12887;DHT22;6511;49.746;6.094;2022-12-18T01:15:32;-10.20;99.90
12887;DHT22;6511;49.746;6.094;2022-12-18T01:17:58;-10.30;99.90
12887;DHT22;6511;49.746;6.094;2022-12-18T01:20:23;-10.30;99.90
12887;DHT22;6511;49.746;6.094;2022-12-18T01:22:49;-10.30;99.90
12887;DHT22;6511;49.746;6.094;2022-12-18T01:25:14;-10.30;99.90
12887;DHT22;6511;49.746;6.094;2022-12-18T01:27:40;-10.40;99.90
12887;DHT22;6511;49.746;6.094;2022-12-18T01:30:06;-10.40;99.90
12887;DHT22;6511;49.746;6.094;2022-12-18T01:32:31;-10.40;99.90
12887;DHT22;6511;49.746;6.094;2022-12-18T01:34:57;-10.40;99.90
12887;DHT22;6511;49.746;6.094;2022-12-18T01:37:23;-10.40;99.90
12887;DHT22;6511;49.746;6.094;2022-12-18T01:39:48;-10.30;99.90
12887;DHT22;6511;49.746;6.094;2022-12-18T01:42:15;-10.30;99.90
12887;DHT22;6511;49.746;6.094;2022-12-18T01:47:29;-10.40;99.90
12887;DHT22;6511;49.746;6.094;2022-12-18T01:49:57;-10.40;99.90
12887;DHT22;6511;49.746;6.094;2022-12-18T01:52:26;-10.50;99.90
12887;DHT22;6511;49.746;6.094;2022-12-18T01:54:53;-10.60;99.90
12887;DHT22;6511;49.746;6.094;2022-12-18T01:57:19;-10.60;99.90
12887;DHT22;6511;49.746;6.094;2022-12-18T01:59:47;-10.60;99.90
12887;DHT22;6511;49.746;6.094;2022-12-18T02:02:15;-10.60;99.90
12887;DHT22;6511;49.746;6.094;2022-12-18T02:04:42;-10.60;99.90
12887;DHT22;6511;49.746;6.094;2022-12-18T02:07:25;-10.60;99.90
12887;DHT22;6511;49.746;6.094;2022-12-18T02:17:52;-10.50;99.90
12887;DHT22;6511;49.746;6.094;2022-12-18T02:20:28;-10.50;99.90
12887;DHT22;6511;49.746;6.094;2022-12-18T02:23:39;-10.40;99.90
12887;DHT22;6511;49.746;6.094;2022-12-18T02:29:21;-10.40;99.90
12887;DHT22;6511;49.746;6.094;2022-12-18T02:31:52;-10.40;99.90
12887;DHT22;6511;49.746;6.094;2022-12-18T02:34:20;-10.40;99.90
12887;DHT22;6511;49.746;6.094;2022-12-18T02:36:48;-10.50;99.90
12887;DHT22;6511;49.746;6.094;2022-12-18T02:39:15;-10.50;99.90
12887;DHT22;6511;49.746;6.094;2022-12-18T02:41:41;-10.50;99.90
12887;DHT22;6511;49.746;6.094;2022-12-18T02:44:10;-10.60;99.90
12887;DHT22;6511;49.746;6.094;2022-12-18T02:46:41;-10.50;99.90
12887;DHT22;6511;49.746;6.094;2022-12-18T02:49:12;-10.50;99.90
12887;DHT22;6511;49.746;6.094;2022-12-18T02:52:08;-10.50;99.90
12887;DHT22;6511;49.746;6.094;2022-12-18T02:57:22;-10.50;99.90
12887;DHT22;6511;49.746;6.094;2022-12-18T03:00:01;-10.70;99.90
12887;DHT22;6511;49.746;6.094;2022-12-18T03:02:50;-10.70;99.90
12887;DHT22;6511;49.746;6.094;2022-12-18T03:07:49;-10.70;99.90
12887;DHT22;6511;49.746;6.094;2022-12-18T03:10:19;-10.70;99.90
12887;DHT22;6511;49.746;6.094;2022-12-18T03:12:52;-10.80;99.90
12887;DHT22;6511;49.746;6.094;2022-12-18T03:15:23;-10.80;99.90
12887;DHT22;6511;49.746;6.094;2022-12-18T03:18:01;-10.80;99.90
12887;DHT22;6511;49.746;6.094;2022-12-18T03:20:29;-10.70;99.90
12887;DHT22;6511;49.746;6.094;2022-12-18T03:23:02;-10.80;99.90
12887;DHT22;6511;49.746;6.094;2022-12-18T03:25:30;-10.80;99.90
12887;DHT22;6511;49.746;6.094;2022-12-18T03:27:59;-10.90;99.90
12887;DHT22;6511;49.746;6.094;2022-12-18T03:30:28;-10.80;99.90
12887;DHT22;6511;49.746;6.094;2022-12-18T03:33:18;-10.90;99.90
12887;DHT22;6511;49.746;6.094;2022-12-18T03:35:45;-10.80;99.90
12887;DHT22;6511;49.746;6.094;2022-12-18T03:38:11;-10.80;99.90
12887;DHT22;6511;49.746;6.094;2022-12-18T03:41:06;-10.70;99.90
12887;DHT22;6511;49.746;6.094;2022-12-18T03:44:02;-10.70;99.90
12887;DHT22;6511;49.746;6.094;2022-12-18T03:46:41;-10.80;99.90
12887;DHT22;6511;49.746;6.094;2022-12-18T03:49:12;-10.90;99.90
12887;DHT22;6511;49.746;6.094;2022-12-18T03:51:50;-10.90;99.90
12887;DHT22;6511;49.746;6.094;2022-12-18T03:54:18;-10.90;99.90
12887;DHT22;6511;49.746;6.094;2022-12-18T03:56:52;-10.80;99.90
12887;DHT22;6511;49.746;6.094;2022-12-18T03:59:21;-10.80;99.90
12887;DHT22;6511;49.746;6.094;2022-12-18T04:01:49;-10.80;99.90
12887;DHT22;6511;49.746;6.094;2022-12-18T04:04:16;-10.70;99.90
12887;DHT22;6511;49.746;6.094;2022-12-18T04:06:43;-10.70;99.90
12887;DHT22;6511;49.746;6.094;2022-12-18T04:09:09;-10.80;99.90
12887;DHT22;6511;49.746;6.094;2022-12-18T04:11:35;-11.10;99.90
12887;DHT22;6511;49.746;6.094;2022-12-18T04:14:01;-11.20;99.90
12887;DHT22;6511;49.746;6.094;2022-12-18T04:16:26;-11.20;99.90
12887;DHT22;6511;49.746;6.094;2022-12-18T04:18:53;-11.20;99.90
12887;DHT22;6511;49.746;6.094;2022-12-18T04:21:19;-11.20;99.90
12887;DHT22;6511;49.746;6.094;2022-12-18T04:23:45;-11.20;99.90
12887;DHT22;6511;49.746;6.094;2022-12-18T04:26:10;-11.20;99.90
12887;DHT22;6511;49.746;6.094;2022-12-18T04:28:36;-11.10;99.90
12887;DHT22;6511;49.746;6.094;2022-12-18T04:31:01;-11.10;99.90
12887;DHT22;6511;49.746;6.094;2022-12-18T04:33:27;-11.10;99.90
12887;DHT22;6511;49.746;6.094;2022-12-18T04:35:53;-11.10;99.90
12887;DHT22;6511;49.746;6.094;2022-12-18T04:38:18;-11.10;99.90
12887;DHT22;6511;49.746;6.094;2022-12-18T04:40:44;-11.10;99.90
12887;DHT22;6511;49.746;6.094;2022-12-18T04:43:09;-11.00;99.90
12887;DHT22;6511;49.746;6.094;2022-12-18T04:45:35;-11.00;99.90
12887;DHT22;6511;49.746;6.094;2022-12-18T04:48:01;-11.00;99.90
12887;DHT22;6511;49.746;6.094;2022-12-18T04:50:28;-11.00;99.90
12887;DHT22;6511;49.746;6.094;2022-12-18T04:52:53;-11.00;99.90
12887;DHT22;6511;49.746;6.094;2022-12-18T04:55:19;-11.10;99.90
12887;DHT22;6511;49.746;6.094;2022-12-18T04:57:44;-11.10;99.90
12887;DHT22;6511;49.746;6.094;2022-12-18T05:00:11;-11.10;99.90
12887;DHT22;6511;49.746;6.094;2022-12-18T05:02:36;-11.20;99.90
12887;DHT22;6511;49.746;6.094;2022-12-18T05:05:03;-11.10;99.90
12887;DHT22;6511;49.746;6.094;2022-12-18T05:07:28;-11.10;99.90
12887;DHT22;6511;49.746;6.094;2022-12-18T05:09:54;-11.20;99.90
12887;DHT22;6511;49.746;6.094;2022-12-18T05:12:19;-11.20;99.90
12887;DHT22;6511;49.746;6.094;2022-12-18T05:14:45;-11.20;99.90
12887;DHT22;6511;49.746;6.094;2022-12-18T05:17:10;-11.10;99.90
12887;DHT22;6511;49.746;6.094;2022-12-18T05:19:36;-11.00;99.90
12887;DHT22;6511;49.746;6.094;2022-12-18T05:22:01;-10.90;99.90
12887;DHT22;6511;49.746;6.094;2022-12-18T05:24:27;-11.00;99.90
12887;DHT22;6511;49.746;6.094;2022-12-18T05:26:52;-11.10;99.90
12887;DHT22;6511;49.746;6.094;2022-12-18T05:29:18;-11.30;99.90
12887;DHT22;6511;49.746;6.094;2022-12-18T05:31:44;-11.30;99.90
12887;DHT22;6511;49.746;6.094;2022-12-18T05:34:09;-11.40;99.90
12887;DHT22;6511;49.746;6.094;2022-12-18T05:36:35;-11.30;99.90
12887;DHT22;6511;49.746;6.094;2022-12-18T05:39:00;-11.30;99.90
12887;DHT22;6511;49.746;6.094;2022-12-18T05:41:26;-11.30;99.90
12887;DHT22;6511;49.746;6.094;2022-12-18T05:43:52;-11.20;99.90
12887;DHT22;6511;49.746;6.094;2022-12-18T05:46:17;-11.10;99.90
12887;DHT22;6511;49.746;6.094;2022-12-18T05:48:44;-11.10;99.90
12887;DHT22;6511;49.746;6.094;2022-12-18T05:51:15;-11.10;99.90
12887;DHT22;6511;49.746;6.094;2022-12-18T05:53:42;-11.00;99.90
12887;DHT22;6511;49.746;6.094;2022-12-18T05:56:15;-11.10;99.90
12887;DHT22;6511;49.746;6.094;2022-12-18T05:58:41;-11.30;99.90
12887;DHT22;6511;49.746;6.094;2022-12-18T06:01:18;-11.40;99.90
12887;DHT22;6511;49.746;6.094;2022-12-18T06:03:44;-11.40;99.90
12887;DHT22;6511;49.746;6.094;2022-12-18T06:06:28;-11.40;99.90
12887;DHT22;6511;49.746;6.094;2022-12-18T06:08:56;-11.40;99.90
12887;DHT22;6511;49.746;6.094;2022-12-18T06:11:24;-11.30;99.90
12887;DHT22;6511;49.746;6.094;2022-12-18T06:13:51;-11.30;99.90
12887;DHT22;6511;49.746;6.094;2022-12-18T06:16:17;-11.40;99.90
12887;DHT22;6511;49.746;6.094;2022-12-18T06:18:43;-11.40;99.90
12887;DHT22;6511;49.746;6.094;2022-12-18T06:21:08;-11.40;99.90
12887;DHT22;6511;49.746;6.094;2022-12-18T06:23:34;-11.50;99.90
12887;DHT22;6511;49.746;6.094;2022-12-18T06:26:04;-11.70;99.90
12887;DHT22;6511;49.746;6.094;2022-12-18T06:28:30;-11.70;99.90
12887;DHT22;6511;49.746;6.094;2022-12-18T06:30:56;-11.70;99.90
12887;DHT22;6511;49.746;6.094;2022-12-18T06:33:21;-11.60;99.90
12887;DHT22;6511;49.746;6.094;2022-12-18T06:35:50;-11.50;99.90
12887;DHT22;6511;49.746;6.094;2022-12-18T06:38:16;-11.40;99.90
12887;DHT22;6511;49.746;6.094;2022-12-18T06:40:41;-11.40;99.90
12887;DHT22;6511;49.746;6.094;2022-12-18T06:43:07;-11.30;99.90
12887;DHT22;6511;49.746;6.094;2022-12-18T06:45:33;-11.30;99.90
12887;DHT22;6511;49.746;6.094;2022-12-18T06:47:58;-11.20;99.90
12887;DHT22;6511;49.746;6.094;2022-12-18T06:50:24;-11.20;99.90
12887;DHT22;6511;49.746;6.094;2022-12-18T06:52:50;-11.20;99.90
12887;DHT22;6511;49.746;6.094;2022-12-18T06:55:15;-11.20;99.90
12887;DHT22;6511;49.746;6.094;2022-12-18T06:57:41;-11.20;99.90
12887;DHT22;6511;49.746;6.094;2022-12-18T07:00:07;-11.20;99.90
12887;DHT22;6511;49.746;6.094;2022-12-18T07:02:33;-11.10;99.90
12887;DHT22;6511;49.746;6.094;2022-12-18T07:04:58;-11.10;99.90
12887;DHT22;6511;49.746;6.094;2022-12-18T07:07:24;-11.10;99.90
12887;DHT22;6511;49.746;6.094;2022-12-18T07:09:50;-11.20;99.90
12887;DHT22;6511;49.746;6.094;2022-12-18T07:12:16;-11.20;99.90
12887;DHT22;6511;49.746;6.094;2022-12-18T07:14:41;-11.20;99.90
12887;DHT22;6511;49.746;6.094;2022-12-18T07:17:07;-11.20;99.90
12887;DHT22;6511;49.746;6.094;2022-12-18T07:19:33;-11.10;99.90
12887;DHT22;6511;49.746;6.094;2022-12-18T07:21:58;-11.10;99.90
12887;DHT22;6511;49.746;6.094;2022-12-18T07:24:24;-11.20;99.90
12887;DHT22;6511;49.746;6.094;2022-12-18T07:26:49;-11.10;99.90
12887;DHT22;6511;49.746;6.094;2022-12-18T07:29:15;-11.10;99.90
12887;DHT22;6511;49.746;6.094;2022-12-18T07:31:41;-11.00;99.90
12887;DHT22;6511;49.746;6.094;2022-12-18T07:34:10;-10.90;99.90
12887;DHT22;6511;49.746;6.094;2022-12-18T07:36:37;-10.80;99.90
12887;DHT22;6511;49.746;6.094;2022-12-18T07:39:02;-10.80;99.90
12887;DHT22;6511;49.746;6.094;2022-12-18T07:41:28;-10.80;99.90
12887;DHT22;6511;49.746;6.094;2022-12-18T07:43:53;-10.80;99.90
12887;DHT22;6511;49.746;6.094;2022-12-18T07:46:19;-10.80;99.90
12887;DHT22;6511;49.746;6.094;2022-12-18T07:48:45;-10.90;99.90
12887;DHT22;6511;49.746;6.094;2022-12-18T07:51:11;-11.10;99.90
12887;DHT22;6511;49.746;6.094;2022-12-18T07:53:36;-11.10;99.90
12887;DHT22;6511;49.746;6.094;2022-12-18T07:56:05;-11.10;99.90
12887;DHT22;6511;49.746;6.094;2022-12-18T07:58:32;-11.20;99.90
12887;DHT22;6511;49.746;6.094;2022-12-18T08:01:11;-11.10;99.90
12887;DHT22;6511;49.746;6.094;2022-12-18T08:03:38;-11.00;99.90
12887;DHT22;6511;49.746;6.094;2022-12-18T08:06:06;-10.90;99.90
12887;DHT22;6511;49.746;6.094;2022-12-18T08:08:33;-10.80;99.90
12887;DHT22;6511;49.746;6.094;2022-12-18T08:10:59;-10.70;99.90
12887;DHT22;6511;49.746;6.094;2022-12-18T08:13:25;-10.70;99.90
12887;DHT22;6511;49.746;6.094;2022-12-18T08:15:57;-10.60;99.90
12887;DHT22;6511;49.746;6.094;2022-12-18T08:18:23;-10.60;99.90
12887;DHT22;6511;49.746;6.094;2022-12-18T08:20:49;-10.50;99.90
12887;DHT22;6511;49.746;6.094;2022-12-18T08:23:15;-10.40;99.90
12887;DHT22;6511;49.746;6.094;2022-12-18T08:25:40;-10.30;99.90
12887;DHT22;6511;49.746;6.094;2022-12-18T08:28:06;-10.20;99.90
12887;DHT22;6511;49.746;6.094;2022-12-18T08:30:31;-10.20;99.90
12887;DHT22;6511;49.746;6.094;2022-12-18T08:32:57;-10.40;99.90
12887;DHT22;6511;49.746;6.094;2022-12-18T08:35:23;-10.40;99.90
12887;DHT22;6511;49.746;6.094;2022-12-18T08:37:48;-10.30;99.90
12887;DHT22;6511;49.746;6.094;2022-12-18T08:40:14;-10.30;99.90
12887;DHT22;6511;49.746;6.094;2022-12-18T08:42:40;-10.20;99.90
12887;DHT22;6511;49.746;6.094;2022-12-18T08:45:24;-10.10;99.90
12887;DHT22;6511;49.746;6.094;2022-12-18T08:47:50;-10.00;99.90
12887;DHT22;6511;49.746;6.094;2022-12-18T08:50:15;-9.90;99.90
12887;DHT22;6511;49.746;6.094;2022-12-18T08:52:41;-10.00;99.90
12887;DHT22;6511;49.746;6.094;2022-12-18T08:55:07;-9.90;99.90
12887;DHT22;6511;49.746;6.094;2022-12-18T08:57:33;-9.80;99.90
12887;DHT22;6511;49.746;6.094;2022-12-18T08:59:59;-9.80;99.90
12887;DHT22;6511;49.746;6.094;2022-12-18T09:02:24;-9.70;99.90
12887;DHT22;6511;49.746;6.094;2022-12-18T09:04:50;-9.60;99.90
12887;DHT22;6511;49.746;6.094;2022-12-18T09:07:15;-9.60;99.90
12887;DHT22;6511;49.746;6.094;2022-12-18T09:09:41;-9.40;99.90
12887;DHT22;6511;49.746;6.094;2022-12-18T09:12:06;-9.40;99.90
12887;DHT22;6511;49.746;6.094;2022-12-18T09:14:32;-9.20;99.90
12887;DHT22;6511;49.746;6.094;2022-12-18T09:16:57;-9.00;99.90
12887;DHT22;6511;49.746;6.094;2022-12-18T09:19:23;-9.00;99.90
12887;DHT22;6511;49.746;6.094;2022-12-18T09:21:48;-8.90;99.90
12887;DHT22;6511;49.746;6.094;2022-12-18T09:24:15;-8.80;99.90
12887;DHT22;6511;49.746;6.094;2022-12-18T09:26:40;-8.70;99.90
12887;DHT22;6511;49.746;6.094;2022-12-18T09:29:06;-8.60;99.90
12887;DHT22;6511;49.746;6.094;2022-12-18T09:31:35;-8.60;99.90
12887;DHT22;6511;49.746;6.094;2022-12-18T09:34:01;-8.50;99.90
12887;DHT22;6511;49.746;6.094;2022-12-18T09:36:27;-8.40;99.90
12887;DHT22;6511;49.746;6.094;2022-12-18T09:38:52;-8.30;99.90
12887;DHT22;6511;49.746;6.094;2022-12-18T09:44:10;-8.10;99.90
12887;DHT22;6511;49.746;6.094;2022-12-18T09:46:43;-8.00;99.90
12887;DHT22;6511;49.746;6.094;2022-12-18T09:49:13;-7.80;99.90
12887;DHT22;6511;49.746;6.094;2022-12-18T09:54:16;-7.70;99.90
12887;DHT22;6511;49.746;6.094;2022-12-18T09:56:44;-7.60;99.90
12887;DHT22;6511;49.746;6.094;2022-12-18T09:59:26;-7.50;99.90
12887;DHT22;6511;49.746;6.094;2022-12-18T10:01:53;-7.40;99.90
12887;DHT22;6511;49.746;6.094;2022-12-18T10:04:18;-7.40;99.90
12887;DHT22;6511;49.746;6.094;2022-12-18T10:07:01;-7.30;99.90
12887;DHT22;6511;49.746;6.094;2022-12-18T10:09:36;-7.30;99.90
12887;DHT22;6511;49.746;6.094;2022-12-18T10:12:08;-7.30;99.90
12887;DHT22;6511;49.746;6.094;2022-12-18T10:14:58;-7.10;99.90
12887;DHT22;6511;49.746;6.094;2022-12-18T10:17:33;-7.00;99.90
12887;DHT22;6511;49.746;6.094;2022-12-18T10:20:16;-6.80;99.90
12887;DHT22;6511;49.746;6.094;2022-12-18T10:25:23;-6.50;99.90
12887;DHT22;6511;49.746;6.094;2022-12-18T10:27:58;-6.40;99.90
12887;DHT22;6511;49.746;6.094;2022-12-18T10:30:25;-6.40;99.90
12887;DHT22;6511;49.746;6.094;2022-12-18T10:32:51;-6.30;99.90
12887;DHT22;6511;49.746;6.094;2022-12-18T10:35:26;-6.30;99.90
12887;DHT22;6511;49.746;6.094;2022-12-18T10:43:19;-6.00;99.90
12887;DHT22;6511;49.746;6.094;2022-12-18T10:48:23;-6.00;99.90
12887;DHT22;6511;49.746;6.094;2022-12-18T10:50:50;-6.00;99.90
12887;DHT22;6511;49.746;6.094;2022-12-18T10:53:23;-5.90;99.90
12887;DHT22;6511;49.746;6.094;2022-12-18T10:55:49;-5.80;99.90
12887;DHT22;6511;49.746;6.094;2022-12-18T11:03:44;-5.40;99.90
12887;DHT22;6511;49.746;6.094;2022-12-18T11:06:13;-5.30;99.90
12887;DHT22;6511;49.746;6.094;2022-12-18T11:08:41;-5.30;99.90
12887;DHT22;6511;49.746;6.094;2022-12-18T11:11:21;-5.30;99.90
12887;DHT22;6511;49.746;6.094;2022-12-18T11:14:17;-5.10;99.90
12887;DHT22;6511;49.746;6.094;2022-12-18T11:16:47;-5.00;99.90
12887;DHT22;6511;49.746;6.094;2022-12-18T11:21:45;-4.60;99.90
12887;DHT22;6511;49.746;6.094;2022-12-18T11:24:34;-4.50;99.90
12887;DHT22;6511;49.746;6.094;2022-12-18T11:27:02;-4.30;99.90
12887;DHT22;6511;49.746;6.094;2022-12-18T11:29:35;-4.20;99.90
12887;DHT22;6511;49.746;6.094;2022-12-18T11:32:34;-4.10;99.90
12887;DHT22;6511;49.746;6.094;2022-12-18T11:35:19;-4.10;99.90
12887;DHT22;6511;49.746;6.094;2022-12-18T11:37:54;-4.00;99.90
12887;DHT22;6511;49.746;6.094;2022-12-18T11:40:30;-3.90;99.90
12887;DHT22;6511;49.746;6.094;2022-12-18T11:43:10;-3.80;99.90
12887;DHT22;6511;49.746;6.094;2022-12-18T11:45:53;-4.00;99.90
12887;DHT22;6511;49.746;6.094;2022-12-18T11:48:32;-3.90;99.90
12887;DHT22;6511;49.746;6.094;2022-12-18T11:51:02;-3.80;99.90
12887;DHT22;6511;49.746;6.094;2022-12-18T11:53:29;-3.60;99.90
12887;DHT22;6511;49.746;6.094;2022-12-18T11:56:05;-3.60;99.90
12887;DHT22;6511;49.746;6.094;2022-12-18T11:58:46;-3.60;99.90
12887;DHT22;6511;49.746;6.094;2022-12-18T12:01:15;-3.50;99.90
12887;DHT22;6511;49.746;6.094;2022-12-18T12:09:26;-3.00;99.90
12887;DHT22;6511;49.746;6.094;2022-12-18T12:15:29;-3.10;99.90
12887;DHT22;6511;49.746;6.094;2022-12-18T12:20:16;-2.80;99.90
12887;DHT22;6511;49.746;6.094;2022-12-18T12:25:52;-2.60;99.90
12887;DHT22;6511;49.746;6.094;2022-12-18T12:39:10;-2.40;99.90
12887;DHT22;6511;49.746;6.094;2022-12-18T12:41:37;-2.40;99.90
12887;DHT22;6511;49.746;6.094;2022-12-18T12:44:26;-2.30;99.90
12887;DHT22;6511;49.746;6.094;2022-12-18T12:46:57;-2.30;99.90
12887;DHT22;6511;49.746;6.094;2022-12-18T12:49:28;-2.30;99.90
12887;DHT22;6511;49.746;6.094;2022-12-18T12:52:04;-2.40;99.90
12887;DHT22;6511;49.746;6.094;2022-12-18T12:54:32;-2.30;99.90
12887;DHT22;6511;49.746;6.094;2022-12-18T13:02:38;-2.10;99.90
12887;DHT22;6511;49.746;6.094;2022-12-18T13:10:35;-2.30;99.90
12887;DHT22;6511;49.746;6.094;2022-12-18T13:13:10;-2.20;99.90
12887;DHT22;6511;49.746;6.094;2022-12-18T13:16:03;-2.20;99.90
12887;DHT22;6511;49.746;6.094;2022-12-18T13:18:30;-2.30;99.90
12887;DHT22;6511;49.746;6.094;2022-12-18T13:25:51;-2.10;99.90
12887;DHT22;6511;49.746;6.094;2022-12-18T13:30:48;-2.30;99.90
12887;DHT22;6511;49.746;6.094;2022-12-18T13:38:34;-2.30;99.90
12887;DHT22;6511;49.746;6.094;2022-12-18T13:41:01;-2.40;99.90
12887;DHT22;6511;49.746;6.094;2022-12-18T13:51:17;-2.40;99.90
12887;DHT22;6511;49.746;6.094;2022-12-18T13:53:50;-2.40;99.90
12887;DHT22;6511;49.746;6.094;2022-12-18T13:56:25;-2.30;99.90
12887;DHT22;6511;49.746;6.094;2022-12-18T13:59:11;-2.20;99.90
12887;DHT22;6511;49.746;6.094;2022-12-18T14:04:25;-2.40;99.90
12887;DHT22;6511;49.746;6.094;2022-12-18T14:07:19;-2.30;99.90
12887;DHT22;6511;49.746;6.094;2022-12-18T14:09:49;-2.30;99.90
12887;DHT22;6511;49.746;6.094;2022-12-18T14:18:03;-2.40;99.90
12887;DHT22;6511;49.746;6.094;2022-12-18T14:20:34;-2.50;99.90
12887;DHT22;6511;49.746;6.094;2022-12-18T14:23:00;-2.50;99.90
12887;DHT22;6511;49.746;6.094;2022-12-18T14:25:27;-2.50;99.90
12887;DHT22;6511;49.746;6.094;2022-12-18T14:28:23;-2.50;99.90
12887;DHT22;6511;49.746;6.094;2022-12-18T14:30:49;-2.50;99.90
12887;DHT22;6511;49.746;6.094;2022-12-18T14:33:20;-2.50;99.90
12887;DHT22;6511;49.746;6.094;2022-12-18T14:35:57;-2.60;99.90
12887;DHT22;6511;49.746;6.094;2022-12-18T14:40:59;-2.70;99.90
12887;DHT22;6511;49.746;6.094;2022-12-18T14:43:27;-2.60;99.90
12887;DHT22;6511;49.746;6.094;2022-12-18T14:45:54;-2.60;99.90
12887;DHT22;6511;49.746;6.094;2022-12-18T14:48:24;-2.50;99.90
12887;DHT22;6511;49.746;6.094;2022-12-18T14:51:03;-2.60;99.90
12887;DHT22;6511;49.746;6.094;2022-12-18T14:53:34;-2.60;99.90
12887;DHT22;6511;49.746;6.094;2022-12-18T14:56:00;-2.60;99.90
12887;DHT22;6511;49.746;6.094;2022-12-18T14:58:26;-2.60;99.90
12887;DHT22;6511;49.746;6.094;2022-12-18T15:00:51;-2.80;99.90
12887;DHT22;6511;49.746;6.094;2022-12-18T15:03:21;-2.80;99.90
12887;DHT22;6511;49.746;6.094;2022-12-18T15:05:47;-2.80;99.90
12887;DHT22;6511;49.746;6.094;2022-12-18T15:08:45;-2.90;99.90
12887;DHT22;6511;49.746;6.094;2022-12-18T15:11:44;-2.70;99.90
12887;DHT22;6511;49.746;6.094;2022-12-18T15:14:30;-2.80;99.90
12887;DHT22;6511;49.746;6.094;2022-12-18T15:17:01;-2.70;99.90
12887;DHT22;6511;49.746;6.094;2022-12-18T15:19:41;-2.90;99.90
12887;DHT22;6511;49.746;6.094;2022-12-18T15:22:25;-3.00;99.90
12887;DHT22;6511;49.746;6.094;2022-12-18T15:24:51;-2.90;99.90
12887;DHT22;6511;49.746;6.094;2022-12-18T15:27:29;-2.90;99.90
12887;DHT22;6511;49.746;6.094;2022-12-18T15:32:34;-2.90;99.90
12887;DHT22;6511;49.746;6.094;2022-12-18T15:35:13;-3.00;99.90
12887;DHT22;6511;49.746;6.094;2022-12-18T15:37:40;-3.00;99.90
12887;DHT22;6511;49.746;6.094;2022-12-18T15:40:08;-3.00;99.90
12887;DHT22;6511;49.746;6.094;2022-12-18T15:42:36;-3.10;99.90
12887;DHT22;6511;49.746;6.094;2022-12-18T15:45:20;-3.10;99.90
12887;DHT22;6511;49.746;6.094;2022-12-18T15:47:46;-3.30;99.90
12887;DHT22;6511;49.746;6.094;2022-12-18T15:50:12;-3.30;99.90
12887;DHT22;6511;49.746;6.094;2022-12-18T15:52:44;-3.30;99.90
12887;DHT22;6511;49.746;6.094;2022-12-18T15:55:12;-3.20;99.90
12887;DHT22;6511;49.746;6.094;2022-12-18T15:57:57;-3.10;99.90
12887;DHT22;6511;49.746;6.094;2022-12-18T16:00:22;-3.20;99.90
12887;DHT22;6511;49.746;6.094;2022-12-18T16:02:48;-3.20;99.90
12887;DHT22;6511;49.746;6.094;2022-12-18T16:05:15;-3.20;99.90
12887;DHT22;6511;49.746;6.094;2022-12-18T16:07:42;-3.10;99.90
12887;DHT22;6511;49.746;6.094;2022-12-18T16:10:08;-3.10;99.90
12887;DHT22;6511;49.746;6.094;2022-12-18T16:12:34;-3.10;99.90
12887;DHT22;6511;49.746;6.094;2022-12-18T16:15:00;-3.10;99.90
12887;DHT22;6511;49.746;6.094;2022-12-18T16:17:26;-3.10;99.90
12887;DHT22;6511;49.746;6.094;2022-12-18T16:19:51;-3.10;99.90
12887;DHT22;6511;49.746;6.094;2022-12-18T16:22:22;-3.00;99.90
12887;DHT22;6511;49.746;6.094;2022-12-18T16:24:49;-3.10;99.90
12887;DHT22;6511;49.746;6.094;2022-12-18T16:27:15;-3.30;99.90
12887;DHT22;6511;49.746;6.094;2022-12-18T16:29:41;-3.20;99.90
12887;DHT22;6511;49.746;6.094;2022-12-18T16:32:06;-3.10;99.90
12887;DHT22;6511;49.746;6.094;2022-12-18T16:34:33;-3.10;99.90
12887;DHT22;6511;49.746;6.094;2022-12-18T16:37:05;-3.20;99.90
12887;DHT22;6511;49.746;6.094;2022-12-18T16:39:32;-3.30;99.90
12887;DHT22;6511;49.746;6.094;2022-12-18T16:41:59;-3.30;99.90
12887;DHT22;6511;49.746;6.094;2022-12-18T16:44:24;-3.10;99.90
12887;DHT22;6511;49.746;6.094;2022-12-18T16:46:50;-3.10;99.90
12887;DHT22;6511;49.746;6.094;2022-12-18T16:49:17;-3.10;99.90
12887;DHT22;6511;49.746;6.094;2022-12-18T16:51:44;-3.20;99.90
12887;DHT22;6511;49.746;6.094;2022-12-18T16:54:10;-3.30;99.90
12887;DHT22;6511;49.746;6.094;2022-12-18T16:56:36;-3.20;99.90
12887;DHT22;6511;49.746;6.094;2022-12-18T16:59:03;-3.10;99.90
12887;DHT22;6511;49.746;6.094;2022-12-18T17:01:29;-3.10;99.90
12887;DHT22;6511;49.746;6.094;2022-12-18T17:04:04;-3.10;99.90
12887;DHT22;6511;49.746;6.094;2022-12-18T17:06:33;-3.00;99.90
12887;DHT22;6511;49.746;6.094;2022-12-18T17:09:00;-3.00;99.90
12887;DHT22;6511;49.746;6.094;2022-12-18T17:11:28;-3.10;99.90
12887;DHT22;6511;49.746;6.094;2022-12-18T17:13:54;-3.00;99.90
12887;DHT22;6511;49.746;6.094;2022-12-18T17:16:20;-3.00;99.90
12887;DHT22;6511;49.746;6.094;2022-12-18T17:18:46;-2.90;99.90
12887;DHT22;6511;49.746;6.094;2022-12-18T17:21:12;-2.90;99.90
12887;DHT22;6511;49.746;6.094;2022-12-18T17:23:42;-2.90;99.90
12887;DHT22;6511;49.746;6.094;2022-12-18T17:26:09;-3.00;99.90
12887;DHT22;6511;49.746;6.094;2022-12-18T17:28:37;-3.00;99.90
12887;DHT22;6511;49.746;6.094;2022-12-18T17:31:14;-2.90;99.90
12887;DHT22;6511;49.746;6.094;2022-12-18T17:33:41;-2.90;99.90
12887;DHT22;6511;49.746;6.094;2022-12-18T17:36:07;-2.80;99.90
12887;DHT22;6511;49.746;6.094;2022-12-18T17:38:33;-2.70;99.90
12887;DHT22;6511;49.746;6.094;2022-12-18T17:41:06;-2.80;99.90
12887;DHT22;6511;49.746;6.094;2022-12-18T17:43:32;-2.80;99.90
12887;DHT22;6511;49.746;6.094;2022-12-18T17:46:04;-2.80;99.90